Time;durP1;ratioP1;P1;durP2;ratioP2;P2;SDS_P1;SDS_P2;PMS_P1;PMS_P2;Temp;Humidity;BMP_temperature;BMP_pressure;BME280_temperature;BME280_humidity;BME280_pressure;Samples;Min_cycle;Max_cycle;Signal;HPM_P1;HPM_P2
2021/12/18 00:01:46;;;;;;;6.22;1.10;;;6.80;99.90;;;;;;5058188;28;20187;-76
2021/12/18 00:04:12;;;;;;;0.40;0.40;;;6.80;99.90;;;;;;5053212;28;20041;-75
2021/12/18 00:06:38;;;;;;;0.47;0.47;;;6.80;99.90;;;;;;5064783;28;20123;-75
2021/12/18 00:09:05;;;;;;;0.20;0.20;;;6.80;99.90;;;;;;5068532;28;20040;-75
2021/12/18 00:11:30;;;;;;;0.20;0.20;;;6.80;99.90;;;;;;5032966;28;20056;-75
2021/12/18 00:13:57;;;;;;;0.20;0.20;;;6.80;99.90;;;;;;5092822;28;20041;-75
2021/12/18 00:16:23;;;;;;;6.90;0.90;;;6.80;99.90;;;;;;5022509;28;20037;-75
2021/12/18 00:18:51;;;;;;;0.30;0.30;;;6.80;99.90;;;;;;5059452;28;20048;-75
2021/12/18 00:21:18;;;;;;;0.20;0.20;;;6.90;99.90;;;;;;5046056;28;20045;-75
2021/12/18 00:23:45;;;;;;;1.60;1.25;;;6.90;99.90;;;;;;5042928;28;20377;-76
2021/12/18 00:26:11;;;;;;;1.13;0.85;;;6.80;99.90;;;;;;5037134;28;20061;-75
2021/12/18 00:28:36;;;;;;;1.27;0.63;;;6.90;99.90;;;;;;5042944;28;20045;-75
2021/12/18 00:31:03;;;;;;;0.47;0.47;;;6.90;99.90;;;;;;5078419;28;20071;-76
2021/12/18 00:33:28;;;;;;;3.53;0.77;;;6.90;99.90;;;;;;5058379;28;20037;-76
2021/12/18 00:35:54;;;;;;;2.90;0.40;;;6.80;99.90;;;;;;5085974;28;20047;-75
2021/12/18 00:38:28;;;;;;;0.40;0.40;;;6.80;99.90;;;;;;5061826;28;20082;-75
2021/12/18 00:44:01;;;;;;;0.17;0.17;;;6.80;99.90;;;;;;5045682;28;20048;-76
2021/12/18 00:46:35;;;;;;;0.93;0.60;;;6.80;99.90;;;;;;5046397;28;20067;-76
2021/12/18 00:49:04;;;;;;;0.43;0.43;;;6.80;99.90;;;;;;5052669;28;20044;-75
2021/12/18 00:51:30;;;;;;;1.70;1.00;;;6.80;99.90;;;;;;5061960;28;20066;-75
2021/12/18 00:53:56;;;;;;;5.40;1.02;;;6.80;99.90;;;;;;5067126;28;20439;-76
2021/12/18 00:56:22;;;;;;;0.10;0.10;;;6.80;99.90;;;;;;5057212;28;20116;-76
2021/12/18 00:58:50;;;;;;;1.33;0.95;;;6.80;99.90;;;;;;5096009;28;20041;-76
2021/12/18 01:01:18;;;;;;;0.60;0.60;;;6.80;99.90;;;;;;5037634;28;20044;-76
2021/12/18 01:03:45;;;;;;;2.03;0.80;;;6.80;99.90;;;;;;5044184;28;20043;-75
2021/12/18 01:06:10;;;;;;;3.55;1.13;;;6.80;99.90;;;;;;5054797;28;20046;-76
2021/12/18 01:08:37;;;;;;;0.70;0.70;;;6.80;99.90;;;;;;5094322;28;20404;-75
2021/12/18 01:24:47;;;;;;;0.28;0.28;;;6.70;99.90;;;;;;5040469;28;20057;-75
2021/12/18 01:27:13;;;;;;;0.50;0.50;;;6.70;99.90;;;;;;5030714;28;20519;-75
2021/12/18 01:29:39;;;;;;;0.22;0.22;;;6.60;99.90;;;;;;5062734;28;20120;-75
2021/12/18 01:32:05;;;;;;;0.22;0.22;;;6.70;99.90;;;;;;5067216;28;20557;-75
2021/12/18 01:34:31;;;;;;;7.88;1.83;;;6.70;99.90;;;;;;5072693;28;20056;-75
2021/12/18 01:36:57;;;;;;;0.20;0.20;;;6.70;99.90;;;;;;5061571;28;20128;-75
2021/12/18 01:39:22;;;;;;;2.30;1.17;;;6.70;99.90;;;;;;5025829;28;20128;-76
2021/12/18 01:42:24;;;;;;;3.15;1.33;;;6.70;99.90;;;;;;5048583;28;20413;-76
2021/12/18 01:45:10;;;;;;;0.40;0.40;;;6.70;99.90;;;;;;5041305;28;20076;-76
2021/12/18 01:53:07;;;;;;;2.97;0.90;;;6.70;99.90;;;;;;5068480;28;20127;-75
2021/12/18 01:55:35;;;;;;;2.10;1.38;;;6.70;99.90;;;;;;5031577;28;20044;-75
2021/12/18 01:58:01;;;;;;;0.60;0.60;;;6.70;99.90;;;;;;5062950;28;20416;-76
2021/12/18 02:00:40;;;;;;;1.75;0.75;;;6.70;99.90;;;;;;5042665;28;20057;-76
2021/12/18 02:03:06;;;;;;;2.72;1.67;;;6.70;99.90;;;;;;5054286;28;20409;-76
2021/12/18 02:05:32;;;;;;;0.75;0.70;;;6.70;99.90;;;;;;5061302;28;20102;-76
2021/12/18 02:07:58;;;;;;;7.78;1.38;;;6.70;99.90;;;;;;5045221;28;20054;-75
2021/12/18 02:10:28;;;;;;;3.88;1.25;;;6.70;99.90;;;;;;5060917;28;20037;-75
2021/12/18 02:13:05;;;;;;;0.45;0.45;;;6.70;99.90;;;;;;5040964;28;20095;-76
2021/12/18 02:21:10;;;;;;;0.75;0.50;;;6.60;99.90;;;;;;5075357;28;20642;-75
2021/12/18 02:23:41;;;;;;;2.15;1.17;;;6.60;99.90;;;;;;5039971;28;20041;-75
2021/12/18 02:26:07;;;;;;;0.57;0.57;;;6.60;99.90;;;;;;5037563;28;20052;-76
2021/12/18 02:28:33;;;;;;;1.60;1.05;;;6.60;99.90;;;;;;5052802;28;20048;-75
2021/12/18 02:30:59;;;;;;;0.20;0.20;;;6.60;99.90;;;;;;5058406;28;20093;-76
2021/12/18 02:33:26;;;;;;;0.80;0.50;;;6.60;99.90;;;;;;5043023;28;20511;-76
2021/12/18 02:35:56;;;;;;;0.45;0.45;;;6.60;99.90;;;;;;5034657;28;20106;-76
2021/12/18 02:38:27;;;;;;;0.30;0.30;;;6.60;99.90;;;;;;5065921;28;20037;-75
2021/12/18 02:43:28;;;;;;;0.20;0.20;;;6.60;99.90;;;;;;5041739;28;20041;-75
2021/12/18 02:45:59;;;;;;;0.40;0.40;;;6.60;99.90;;;;;;5081331;28;20048;-75
2021/12/18 02:48:27;;;;;;;1.20;1.02;;;6.60;99.90;;;;;;5055188;28;20401;-75
2021/12/18 02:50:52;;;;;;;0.68;0.68;;;6.70;99.90;;;;;;5063535;28;20067;-76
2021/12/18 02:53:18;;;;;;;1.45;1.00;;;6.70;99.90;;;;;;5071013;28;20174;-75
2021/12/18 02:55:44;;;;;;;0.20;0.20;;;6.70;99.90;;;;;;5022345;28;20044;-75
2021/12/18 02:58:10;;;;;;;1.10;0.75;;;6.70;99.90;;;;;;5037971;28;20038;-76
2021/12/18 03:00:35;;;;;;;2.20;1.25;;;6.70;99.90;;;;;;5073657;28;20739;-75
2021/12/18 03:03:07;;;;;;;3.55;1.25;;;6.70;99.90;;;;;;5052446;28;20048;-75
2021/12/18 03:05:40;;;;;;;1.90;0.95;;;6.70;99.90;;;;;;5045908;28;20788;-76
2021/12/18 03:08:13;;;;;;;2.08;1.33;;;6.60;99.90;;;;;;5084095;28;20778;-76
2021/12/18 03:24:41;;;;;;;1.52;0.93;;;6.70;99.90;;;;;;5066647;28;20055;-75
2021/12/18 03:27:07;;;;;;;2.22;0.93;;;6.70;99.90;;;;;;5045024;28;20116;-76
2021/12/18 03:29:33;;;;;;;1.15;0.75;;;6.70;99.90;;;;;;5031135;28;20065;-75
2021/12/18 03:31:59;;;;;;;1.48;0.73;;;6.70;99.90;;;;;;5027043;28;20037;-75
2021/12/18 03:34:25;;;;;;;0.20;0.20;;;6.70;99.90;;;;;;5065227;28;20404;-76
2021/12/18 03:36:52;;;;;;;0.43;0.43;;;6.60;99.90;;;;;;5035535;28;20069;-75
2021/12/18 03:39:18;;;;;;;0.82;0.75;;;6.60;99.90;;;;;;5066190;28;20040;-75
2021/12/18 03:41:44;;;;;;;3.42;0.52;;;6.60;99.90;;;;;;5055243;28;20044;-75
2021/12/18 03:44:10;;;;;;;0.38;0.30;;;6.50;99.90;;;;;;5063162;28;20044;-76
2021/12/18 03:46:36;;;;;;;0.30;0.30;;;6.50;99.90;;;;;;5073096;28;20049;-75
2021/12/18 03:49:03;;;;;;;0.30;0.30;;;6.50;99.90;;;;;;5062051;28;20041;-76
2021/12/18 03:51:29;;;;;;;0.63;0.63;;;6.50;99.90;;;;;;5035888;28;20445;-75
2021/12/18 03:53:54;;;;;;;0.20;0.20;;;6.40;99.90;;;;;;5047701;28;20076;-76
2021/12/18 03:56:20;;;;;;;0.20;0.20;;;6.40;99.90;;;;;;5068810;28;20049;-75
2021/12/18 03:58:46;;;;;;;0.20;0.20;;;6.40;99.90;;;;;;5070168;28;20125;-76
2021/12/18 04:01:12;;;;;;;0.20;0.20;;;6.40;99.90;;;;;;5071513;28;20047;-75
2021/12/18 04:03:38;;;;;;;0.20;0.20;;;6.40;99.90;;;;;;5059340;28;20086;-76
2021/12/18 04:06:04;;;;;;;0.50;0.43;;;6.40;99.90;;;;;;5044095;28;20437;-75
2021/12/18 04:08:29;;;;;;;0.20;0.20;;;6.40;99.90;;;;;;5047650;28;20552;-75
2021/12/18 04:10:55;;;;;;;1.48;0.35;;;6.40;99.90;;;;;;5053829;28;20037;-75
2021/12/18 04:13:21;;;;;;;7.78;1.58;;;6.40;99.90;;;;;;5040643;28;20052;-75
2021/12/18 04:15:47;;;;;;;0.30;0.30;;;6.40;99.90;;;;;;5069813;28;20065;-75
2021/12/18 04:18:12;;;;;;;0.32;0.32;;;6.40;99.90;;;;;;5039031;28;20044;-75
2021/12/18 04:20:38;;;;;;;1.00;1.00;;;6.40;99.90;;;;;;5055928;28;20056;-76
2021/12/18 04:23:04;;;;;;;0.28;0.28;;;6.50;99.90;;;;;;5032160;28;20053;-75
2021/12/18 04:25:30;;;;;;;0.75;0.40;;;6.50;99.90;;;;;;5049669;28;20045;-75
2021/12/18 04:27:56;;;;;;;0.30;0.30;;;6.50;99.90;;;;;;5046344;28;20579;-75
2021/12/18 04:30:22;;;;;;;0.20;0.20;;;6.50;99.90;;;;;;5051911;28;20088;-75
2021/12/18 04:32:47;;;;;;;0.20;0.20;;;6.50;99.90;;;;;;5043017;28;20421;-76
2021/12/18 04:35:13;;;;;;;0.40;0.40;;;6.50;99.90;;;;;;5057367;28;20524;-75
2021/12/18 04:37:39;;;;;;;0.85;0.82;;;6.60;99.90;;;;;;5067654;28;20041;-76
2021/12/18 04:40:07;;;;;;;0.30;0.30;;;6.60;99.90;;;;;;5084475;28;20032;-75
2021/12/18 04:42:32;;;;;;;0.20;0.20;;;6.60;99.90;;;;;;5084932;28;20166;-75
2021/12/18 04:44:58;;;;;;;0.20;0.20;;;6.60;99.90;;;;;;5045965;28;20041;-75
2021/12/18 04:47:24;;;;;;;2.92;1.05;;;6.60;99.90;;;;;;5073129;28;20159;-76
2021/12/18 04:49:50;;;;;;;1.15;0.80;;;6.60;99.90;;;;;;5049303;28;20041;-76
2021/12/18 04:52:15;;;;;;;0.20;0.20;;;6.70;99.90;;;;;;5030262;28;20080;-76
2021/12/18 04:54:41;;;;;;;0.20;0.20;;;6.70;99.90;;;;;;5084553;28;20064;-76
2021/12/18 04:57:07;;;;;;;0.38;0.38;;;6.70;99.90;;;;;;5073823;28;20090;-75
2021/12/18 04:59:33;;;;;;;1.85;1.38;;;6.80;99.90;;;;;;5048506;28;20052;-75
2021/12/18 05:01:59;;;;;;;1.13;0.50;;;6.80;99.90;;;;;;5055956;28;20053;-75
2021/12/18 05:04:24;;;;;;;0.30;0.30;;;6.80;99.90;;;;;;5075315;28;20037;-76
2021/12/18 05:06:52;;;;;;;0.30;0.30;;;6.80;99.90;;;;;;5076914;28;20041;-75
2021/12/18 05:09:19;;;;;;;0.40;0.40;;;6.80;99.90;;;;;;5035734;28;20064;-76
2021/12/18 05:11:45;;;;;;;0.40;0.40;;;6.90;99.90;;;;;;5078200;28;20044;-75
2021/12/18 05:14:12;;;;;;;4.07;2.08;;;6.90;99.90;;;;;;5047770;28;20440;-75
2021/12/18 05:16:38;;;;;;;0.70;0.70;;;6.90;99.90;;;;;;5068921;28;20036;-75
2021/12/18 05:19:04;;;;;;;2.05;1.52;;;6.90;99.90;;;;;;5027645;28;20068;-75
2021/12/18 05:21:30;;;;;;;1.02;0.63;;;7.00;99.90;;;;;;5076225;28;20409;-75
2021/12/18 05:23:55;;;;;;;5.60;1.80;;;7.00;99.90;;;;;;5043805;28;20040;-76
2021/12/18 05:26:21;;;;;;;2.45;1.50;;;7.00;99.90;;;;;;5047131;28;20513;-76
2021/12/18 05:28:47;;;;;;;6.57;1.92;;;7.00;99.90;;;;;;5043316;28;20119;-76
2021/12/18 05:31:16;;;;;;;4.80;2.65;;;7.10;99.90;;;;;;5066909;28;20051;-76
2021/12/18 05:33:44;;;;;;;1.75;1.25;;;7.10;99.90;;;;;;5073841;28;20076;-76
2021/12/18 05:36:30;;;;;;;6.03;1.60;;;7.10;99.90;;;;;;5033163;28;20132;-75
2021/12/18 05:38:58;;;;;;;6.68;2.95;;;7.20;99.90;;;;;;5055477;28;20047;-75
2021/12/18 05:41:24;;;;;;;7.00;2.25;;;7.20;99.90;;;;;;5043659;28;20444;-76
2021/12/18 05:43:49;;;;;;;5.35;2.70;;;7.20;99.90;;;;;;5035613;28;20072;-76
2021/12/18 05:46:15;;;;;;;5.38;0.90;;;7.30;99.90;;;;;;5078281;28;20116;-75
2021/12/18 05:48:41;;;;;;;5.30;2.45;;;7.30;99.90;;;;;;5057812;28;20033;-75
2021/12/18 05:51:06;;;;;;;3.85;2.08;;;7.30;99.90;;;;;;5031854;28;20067;-76
2021/12/18 05:53:33;;;;;;;1.42;1.08;;;7.30;99.90;;;;;;5063074;28;20042;-75
2021/12/18 05:55:58;;;;;;;8.00;2.13;;;7.30;99.90;;;;;;5102047;28;20051;-75
2021/12/18 05:58:24;;;;;;;2.78;1.67;;;7.40;99.90;;;;;;5047278;28;20040;-75
2021/12/18 06:00:50;;;;;;;9.27;3.78;;;7.40;99.90;;;;;;5050966;28;20557;-76
2021/12/18 06:03:16;;;;;;;10.50;3.47;;;7.40;99.90;;;;;;5050453;28;20548;-76
2021/12/18 06:05:41;;;;;;;4.35;1.50;;;7.50;99.90;;;;;;5025796;28;20130;-75
2021/12/18 06:08:11;;;;;;;7.00;3.35;;;7.50;99.90;;;;;;5025949;28;20048;-76
2021/12/18 06:10:37;;;;;;;7.60;3.00;;;7.50;99.90;;;;;;5019622;28;20554;-76
2021/12/18 06:13:04;;;;;;;2.40;1.85;;;7.50;99.90;;;;;;5047218;28;20037;-76
2021/12/18 06:15:30;;;;;;;11.30;1.10;;;7.50;99.90;;;;;;5022264;28;20049;-76
2021/12/18 06:17:57;;;;;;;2.65;0.93;;;7.50;99.90;;;;;;5061452;28;20037;-76
2021/12/18 06:20:24;;;;;;;0.45;0.45;;;7.50;99.90;;;;;;5028796;28;20037;-76
2021/12/18 06:22:50;;;;;;;4.25;2.88;;;7.50;99.90;;;;;;5066841;28;20049;-75
2021/12/18 06:25:16;;;;;;;0.20;0.20;;;7.50;99.90;;;;;;5064438;28;20037;-76
2021/12/18 06:27:42;;;;;;;7.90;2.45;;;7.60;99.90;;;;;;5057676;28;20531;-76
2021/12/18 06:30:09;;;;;;;0.40;0.40;;;7.60;99.90;;;;;;5065645;28;20076;-76
2021/12/18 06:32:36;;;;;;;2.92;0.25;;;7.60;99.90;;;;;;5037844;28;20118;-76
2021/12/18 06:35:02;;;;;;;0.20;0.20;;;7.60;99.90;;;;;;5049447;28;20040;-75
2021/12/18 06:37:28;;;;;;;0.10;0.10;;;7.60;99.90;;;;;;5052361;28;20044;-76
2021/12/18 06:39:54;;;;;;;6.90;2.05;;;7.60;99.90;;;;;;5026498;28;20045;-76
2021/12/18 06:42:20;;;;;;;3.25;0.95;;;7.60;99.90;;;;;;5090867;28;20087;-76
2021/12/18 06:44:45;;;;;;;0.20;0.20;;;7.60;99.90;;;;;;5067036;28;20044;-76
2021/12/18 06:47:11;;;;;;;0.20;0.20;;;7.60;99.90;;;;;;5030057;28;20536;-76
2021/12/18 06:49:37;;;;;;;4.88;2.22;;;7.60;99.90;;;;;;5056617;28;20052;-76
2021/12/18 06:52:03;;;;;;;4.75;2.40;;;7.70;99.90;;;;;;5081532;28;20408;-76
2021/12/18 06:54:29;;;;;;;0.57;0.57;;;7.60;99.90;;;;;;5039173;28;20091;-75
2021/12/18 06:56:55;;;;;;;0.25;0.25;;;7.70;99.90;;;;;;5029053;28;20486;-76
2021/12/18 06:59:20;;;;;;;6.43;2.47;;;7.70;99.90;;;;;;5052255;28;20051;-76
2021/12/18 07:01:46;;;;;;;2.10;1.55;;;7.70;99.90;;;;;;5083818;28;20464;-76
2021/12/18 07:04:12;;;;;;;10.57;3.25;;;7.70;99.90;;;;;;5046809;28;20492;-76
2021/12/18 07:06:37;;;;;;;0.95;0.95;;;7.80;99.90;;;;;;5047911;28;20408;-75
2021/12/18 07:09:04;;;;;;;0.50;0.50;;;7.80;99.90;;;;;;5051094;28;20572;-76
2021/12/18 07:11:29;;;;;;;0.20;0.20;;;7.80;99.90;;;;;;5037167;28;20041;-76
2021/12/18 07:13:55;;;;;;;0.20;0.20;;;7.80;99.90;;;;;;5037857;28;20559;-76
2021/12/18 07:16:21;;;;;;;3.03;0.90;;;7.80;99.90;;;;;;5056558;28;20036;-76
2021/12/18 07:18:47;;;;;;;8.38;2.33;;;7.80;99.90;;;;;;5059345;28;20413;-76
2021/12/18 07:21:13;;;;;;;0.20;0.20;;;7.80;99.90;;;;;;5049893;28;20048;-76
2021/12/18 07:23:40;;;;;;;0.55;0.55;;;7.80;99.90;;;;;;5052103;28;20041;-76
2021/12/18 07:26:06;;;;;;;7.22;2.22;;;7.90;99.90;;;;;;5074554;28;20049;-76
2021/12/18 07:28:31;;;;;;;0.20;0.20;;;7.90;99.90;;;;;;5028950;28;20449;-76
2021/12/18 07:30:57;;;;;;;0.20;0.20;;;7.90;99.90;;;;;;5049014;28;20041;-76
2021/12/18 07:33:23;;;;;;;9.80;2.20;;;7.90;99.90;;;;;;5045998;28;20037;-75
2021/12/18 07:35:50;;;;;;;3.05;1.23;;;7.90;99.90;;;;;;5085768;28;20063;-76
2021/12/18 07:38:16;;;;;;;3.55;1.90;;;7.90;99.90;;;;;;5046950;28;20049;-75
2021/12/18 07:40:42;;;;;;;0.50;0.25;;;8.00;99.90;;;;;;5043993;28;20048;-75
2021/12/18 07:43:08;;;;;;;5.18;1.92;;;8.00;99.90;;;;;;5044701;28;20072;-75
2021/12/18 07:45:34;;;;;;;1.95;1.15;;;8.00;99.90;;;;;;5047355;28;20087;-76
2021/12/18 07:48:02;;;;;;;3.75;1.75;;;8.00;99.90;;;;;;5071694;28;20060;-76
2021/12/18 07:50:27;;;;;;;1.02;0.85;;;8.10;99.90;;;;;;5045229;28;20090;-75
2021/12/18 07:52:53;;;;;;;8.43;2.88;;;8.10;99.90;;;;;;5031583;28;20437;-76
2021/12/18 07:55:19;;;;;;;0.20;0.20;;;8.10;99.90;;;;;;5021872;28;20042;-76
2021/12/18 07:57:45;;;;;;;0.73;0.73;;;8.10;99.90;;;;;;5042505;28;20083;-75
2021/12/18 08:00:14;;;;;;;1.98;0.85;;;8.10;99.90;;;;;;5070561;28;20084;-75
2021/12/18 08:02:40;;;;;;;0.35;0.35;;;8.10;99.90;;;;;;5010115;28;20497;-76
2021/12/18 08:05:07;;;;;;;12.25;2.33;;;8.10;99.90;;;;;;5077084;28;20048;-75
2021/12/18 08:07:34;;;;;;;0.85;0.70;;;8.10;99.90;;;;;;5064017;28;20070;-75
2021/12/18 08:09:59;;;;;;;0.20;0.20;;;8.20;99.90;;;;;;5052888;28;20500;-75
2021/12/18 08:12:25;;;;;;;2.97;0.70;;;8.20;99.90;;;;;;5032114;28;20082;-76
2021/12/18 08:14:51;;;;;;;2.20;0.95;;;8.20;99.90;;;;;;5083716;28;20783;-75
2021/12/18 08:17:17;;;;;;;0.10;0.10;;;8.30;99.90;;;;;;5031791;28;20178;-76
2021/12/18 08:19:42;;;;;;;2.03;0.93;;;8.20;99.90;;;;;;5043752;28;20037;-76
2021/12/18 08:22:08;;;;;;;1.23;0.80;;;8.30;99.90;;;;;;5071326;28;20570;-75
2021/12/18 08:24:35;;;;;;;8.00;1.50;;;8.30;99.90;;;;;;5071827;28;20056;-75
2021/12/18 08:27:01;;;;;;;0.20;0.20;;;8.30;99.90;;;;;;5055837;28;20052;-75
2021/12/18 08:29:27;;;;;;;0.10;0.10;;;8.30;99.90;;;;;;5061914;28;20555;-75
2021/12/18 08:31:52;;;;;;;7.82;0.52;;;8.30;99.90;;;;;;5039572;28;20094;-75
2021/12/18 08:34:24;;;;;;;0.20;0.20;;;8.30;99.90;;;;;;5059039;28;20037;-76
2021/12/18 08:36:51;;;;;;;0.20;0.20;;;8.30;99.90;;;;;;5051687;28;20148;-75
2021/12/18 08:39:17;;;;;;;3.65;1.65;;;8.40;99.90;;;;;;5069953;28;20036;-76
2021/12/18 08:41:45;;;;;;;0.20;0.20;;;8.40;99.90;;;;;;5055654;28;20052;-76
2021/12/18 08:44:12;;;;;;;0.73;0.73;;;8.40;99.90;;;;;;5060687;28;20111;-75
2021/12/18 08:46:38;;;;;;;46.88;2.05;;;8.40;99.90;;;;;;5103979;28;20049;-75
2021/12/18 08:49:04;;;;;;;0.20;0.20;;;8.40;99.90;;;;;;5056278;28;20037;-75
2021/12/18 08:51:30;;;;;;;0.20;0.20;;;8.40;99.90;;;;;;5052489;28;20041;-76
2021/12/18 08:53:56;;;;;;;0.20;0.20;;;8.50;99.90;;;;;;5058384;28;20041;-76
2021/12/18 08:56:22;;;;;;;0.55;0.55;;;8.50;99.90;;;;;;5048172;28;20086;-75
2021/12/18 08:58:50;;;;;;;0.10;0.10;;;8.50;99.90;;;;;;5032832;28;20032;-76
2021/12/18 09:01:16;;;;;;;0.30;0.30;;;8.50;99.90;;;;;;5049518;28;20075;-76
2021/12/18 09:03:42;;;;;;;0.20;0.20;;;8.60;99.90;;;;;;5045418;28;20040;-77
2021/12/18 09:06:08;;;;;;;1.27;1.25;;;8.60;99.90;;;;;;5048097;28;20115;-76
2021/12/18 09:08:33;;;;;;;0.85;0.85;;;8.60;99.90;;;;;;5037119;28;20040;-77
2021/12/18 09:10:59;;;;;;;6.68;1.92;;;8.60;99.90;;;;;;5047460;28;20052;-76
2021/12/18 09:13:25;;;;;;;5.40;1.60;;;8.70;99.90;;;;;;5051668;28;20049;-77
2021/12/18 09:15:51;;;;;;;0.20;0.20;;;8.70;99.90;;;;;;5043248;28;20039;-76
2021/12/18 09:18:17;;;;;;;0.20;0.20;;;8.70;99.90;;;;;;5031870;28;20033;-77
2021/12/18 09:20:44;;;;;;;0.20;0.20;;;8.70;99.90;;;;;;5038266;28;20548;-77
2021/12/18 09:23:13;;;;;;;4.32;1.10;;;8.70;99.90;;;;;;5048614;28;20049;-77
2021/12/18 09:25:38;;;;;;;2.60;1.33;;;8.80;99.90;;;;;;5046161;28;20036;-77
2021/12/18 09:28:05;;;;;;;2.03;1.48;;;8.80;99.90;;;;;;5051365;28;20103;-77
2021/12/18 09:30:30;;;;;;;2.28;1.50;;;8.80;99.90;;;;;;5048646;28;20053;-77
2021/12/18 09:32:56;;;;;;;0.45;0.45;;;8.80;99.90;;;;;;5032325;28;20401;-77
2021/12/18 09:35:22;;;;;;;0.70;0.70;;;8.80;99.90;;;;;;5060465;28;20040;-76
2021/12/18 09:37:48;;;;;;;1.80;1.48;;;8.80;99.90;;;;;;5064013;28;20045;-76
2021/12/18 09:40:16;;;;;;;1.33;0.50;;;8.90;99.90;;;;;;5073887;28;20064;-77
2021/12/18 09:42:42;;;;;;;0.82;0.82;;;8.80;99.90;;;;;;5066143;28;20048;-76
2021/12/18 09:45:08;;;;;;;4.22;1.60;;;8.90;99.90;;;;;;5086151;28;20049;-77
2021/12/18 09:47:34;;;;;;;0.32;0.32;;;8.90;99.90;;;;;;5056570;28;20051;-77
2021/12/18 09:50:00;;;;;;;17.90;1.92;;;8.80;99.90;;;;;;5060306;28;20049;-77
2021/12/18 09:52:26;;;;;;;0.32;0.30;;;8.80;99.90;;;;;;5058032;28;20037;-77
2021/12/18 09:54:57;;;;;;;2.83;1.98;;;8.80;99.90;;;;;;5043545;28;20059;-77
2021/12/18 09:57:23;;;;;;;0.30;0.30;;;8.80;99.90;;;;;;5041417;28;20068;-77
2021/12/18 09:59:49;;;;;;;0.45;0.45;;;8.80;99.90;;;;;;5049516;28;20536;-76
2021/12/18 10:02:14;;;;;;;0.45;0.45;;;8.80;99.90;;;;;;5050513;28;20048;-76
2021/12/18 10:04:40;;;;;;;2.15;1.35;;;8.80;99.90;;;;;;5053170;28;20042;-77
2021/12/18 10:07:19;;;;;;;0.22;0.22;;;8.80;99.90;;;;;;5080160;28;20084;-76
2021/12/18 10:09:46;;;;;;;1.35;0.35;;;8.80;99.90;;;;;;5062061;28;20067;-77
2021/12/18 10:12:15;;;;;;;0.20;0.20;;;8.80;99.90;;;;;;5063846;28;20033;-76
2021/12/18 10:14:50;;;;;;;5.07;2.28;;;8.80;99.90;;;;;;5048248;28;20037;-77
2021/12/18 10:17:22;;;;;;;1.75;1.23;;;8.80;99.90;;;;;;5027670;28;20593;-77
2021/12/18 10:19:50;;;;;;;0.73;0.73;;;8.80;99.90;;;;;;5069267;28;20040;-77
2021/12/18 10:22:16;;;;;;;0.85;0.85;;;8.80;99.90;;;;;;5066080;28;20499;-77
2021/12/18 10:24:44;;;;;;;0.20;0.20;;;8.80;99.90;;;;;;5050644;28;20036;-77
2021/12/18 10:27:28;;;;;;;3.05;1.85;;;8.80;99.90;;;;;;5030080;28;20127;-77
2021/12/18 10:30:07;;;;;;;5.75;2.60;;;8.80;99.90;;;;;;5038662;28;20037;-77
2021/12/18 10:32:33;;;;;;;2.20;2.00;;;8.80;99.90;;;;;;5053269;28;20044;-77
2021/12/18 10:34:59;;;;;;;6.97;2.92;;;8.80;99.90;;;;;;5053179;28;20492;-77
2021/12/18 10:37:31;;;;;;;1.50;1.40;;;8.80;99.90;;;;;;5052047;28;20048;-76
2021/12/18 10:40:11;;;;;;;1.73;1.60;;;8.80;99.90;;;;;;5041364;28;20102;-77
2021/12/18 10:42:46;;;;;;;2.72;2.05;;;8.80;99.90;;;;;;5056078;28;20044;-77
2021/12/18 10:45:12;;;;;;;0.88;0.82;;;8.80;99.90;;;;;;5051328;28;20059;-77
2021/12/18 10:47:57;;;;;;;4.32;2.90;;;8.90;99.90;;;;;;5052045;28;20040;-77
2021/12/18 10:50:27;;;;;;;0.65;0.65;;;8.90;99.90;;;;;;5035762;28;20132;-76
2021/12/18 10:53:15;;;;;;;14.25;1.60;;;8.90;99.90;;;;;;5034334;28;20051;-77
2021/12/18 10:55:51;;;;;;;3.30;1.55;;;8.90;99.90;;;;;;5068773;28;20124;-77
2021/12/18 10:58:26;;;;;;;0.10;0.10;;;8.90;99.90;;;;;;5041849;28;20043;-77
2021/12/18 11:01:04;;;;;;;2.67;1.35;;;8.90;99.90;;;;;;5069312;28;20433;-76
2021/12/18 11:03:37;;;;;;;0.40;0.40;;;8.90;99.90;;;;;;5069331;28;20080;-77
2021/12/18 11:06:14;;;;;;;4.00;2.20;;;8.90;99.90;;;;;;5056279;28;20500;-77
2021/12/18 11:09:07;;;;;;;0.25;0.25;;;9.00;99.90;;;;;;5044216;28;20084;-77
2021/12/18 11:14:23;;;;;;;1.13;1.05;;;9.00;99.90;;;;;;5043539;28;20037;-76
2021/12/18 11:16:52;;;;;;;7.28;1.80;;;9.00;99.90;;;;;;5068581;28;20562;-77
2021/12/18 11:19:24;;;;;;;0.10;0.10;;;9.00;99.90;;;;;;5059773;28;20048;-76
2021/12/18 11:22:15;;;;;;;1.50;1.33;;;9.00;99.90;;;;;;5038401;28;20049;-77
2021/12/18 11:25:02;;;;;;;0.88;0.88;;;9.10;99.90;;;;;;5041857;28;20036;-76
2021/12/18 11:27:29;;;;;;;5.60;2.45;;;9.10;99.90;;;;;;5041695;28;20076;-76
2021/12/18 11:30:06;;;;;;;4.53;1.90;;;9.10;99.90;;;;;;5056075;28;20410;-76
2021/12/18 11:32:34;;;;;;;0.20;0.20;;;9.10;99.90;;;;;;5037535;28;20556;-77
2021/12/18 11:35:05;;;;;;;1.67;1.27;;;9.20;99.90;;;;;;5033831;28;20559;-76
2021/12/18 11:37:41;;;;;;;5.13;1.67;;;9.20;99.90;;;;;;5068597;28;20143;-77
2021/12/18 11:40:11;;;;;;;0.20;0.20;;;9.20;99.90;;;;;;5044875;28;20052;-76
2021/12/18 11:42:36;;;;;;;1.63;1.27;;;9.20;99.90;;;;;;5055852;28;20508;-76
2021/12/18 11:45:06;;;;;;;4.38;1.23;;;9.20;99.90;;;;;;5072285;28;20076;-76
2021/12/18 11:47:37;;;;;;;2.05;1.38;;;9.30;99.90;;;;;;5059676;28;20333;-76
2021/12/18 11:50:26;;;;;;;3.50;0.65;;;9.30;99.90;;;;;;5051386;28;20052;-77
2021/12/18 11:52:58;;;;;;;2.05;1.25;;;9.40;99.90;;;;;;5050548;28;20382;-76
2021/12/18 11:55:27;;;;;;;6.68;1.38;;;9.40;99.90;;;;;;5055273;28;20047;-77
2021/12/18 11:57:58;;;;;;;1.00;0.80;;;9.40;99.90;;;;;;5054873;28;20056;-77
2021/12/18 12:00:36;;;;;;;1.50;0.98;;;9.40;99.90;;;;;;5072135;28;20044;-77
2021/12/18 12:03:03;;;;;;;3.33;1.67;;;9.40;99.90;;;;;;5073266;28;20049;-76
2021/12/18 12:05:37;;;;;;;5.38;1.05;;;9.40;99.90;;;;;;5046936;28;20573;-77
2021/12/18 12:08:25;;;;;;;1.88;0.52;;;9.40;99.90;;;;;;5047741;28;20055;-76
2021/12/18 12:11:16;;;;;;;5.00;1.85;;;9.40;99.90;;;;;;5071829;28;20412;-77
2021/12/18 12:13:52;;;;;;;2.70;1.30;;;9.40;99.90;;;;;;5055211;28;20044;-76
2021/12/18 12:16:19;;;;;;;0.55;0.55;;;9.40;99.90;;;;;;5053246;28;20044;-74
2021/12/18 12:19:04;;;;;;;4.53;1.70;;;9.40;99.90;;;;;;5028499;28;20032;-75
2021/12/18 12:21:46;;;;;;;3.45;1.25;;;9.40;99.90;;;;;;5034392;28;20048;-75
2021/12/18 12:24:14;;;;;;;3.75;3.50;;;9.30;99.90;;;;;;5030073;28;20037;-75
2021/12/18 12:26:40;;;;;;;5.03;3.95;;;9.30;99.90;;;;;;5036124;28;20056;-75
2021/12/18 12:29:07;;;;;;;3.70;3.33;;;9.30;99.90;;;;;;5055509;28;20630;-77
2021/12/18 12:31:34;;;;;;;3.40;1.25;;;9.40;99.90;;;;;;5035200;28;20036;-77
2021/12/18 12:34:19;;;;;;;1.65;1.55;;;9.40;99.90;;;;;;5046531;28;20041;-77
2021/12/18 12:36:46;;;;;;;1.08;0.90;;;9.40;99.90;;;;;;5028038;28;20132;-75
2021/12/18 12:39:14;;;;;;;0.52;0.52;;;9.40;99.90;;;;;;5063947;28;20385;-75
2021/12/18 12:41:47;;;;;;;2.47;1.15;;;9.40;99.90;;;;;;5028145;28;20506;-74
2021/12/18 12:44:24;;;;;;;3.20;2.20;;;9.40;99.90;;;;;;5033784;28;20036;-74
2021/12/18 12:47:18;;;;;;;2.95;1.20;;;9.40;99.90;;;;;;5038995;28;20044;-74
2021/12/18 12:49:47;;;;;;;0.75;0.73;;;9.30;99.90;;;;;;5046466;28;20049;-74
2021/12/18 12:52:19;;;;;;;1.55;1.38;;;9.40;99.90;;;;;;5045462;28;20041;-74
2021/12/18 12:55:13;;;;;;;1.85;1.75;;;9.40;99.90;;;;;;5032975;28;20041;-75
2021/12/18 12:58:05;;;;;;;4.60;0.88;;;9.40;99.90;;;;;;5040584;28;20036;-75
2021/12/18 13:00:37;;;;;;;3.97;1.88;;;9.40;99.90;;;;;;5021124;28;20037;-75
2021/12/18 13:03:09;;;;;;;2.58;1.40;;;9.30;99.90;;;;;;5052529;28;20041;-74
2021/12/18 13:05:57;;;;;;;1.60;1.35;;;9.30;99.90;;;;;;5037565;28;20040;-75
2021/12/18 13:08:25;;;;;;;0.50;0.50;;;9.30;99.90;;;;;;5046632;28;20052;-75
2021/12/18 13:10:54;;;;;;;0.45;0.45;;;9.30;99.90;;;;;;5051861;28;20047;-75
2021/12/18 13:13:23;;;;;;;3.15;1.58;;;9.30;99.90;;;;;;5063029;28;20044;-75
2021/12/18 13:15:55;;;;;;;7.45;2.90;;;9.30;99.90;;;;;;5049047;28;20044;-75
2021/12/18 13:18:27;;;;;;;3.38;2.70;;;9.20;99.90;;;;;;5042148;28;20039;-75
2021/12/18 13:21:03;;;;;;;2.15;1.80;;;9.20;99.90;;;;;;5052599;28;20051;-75
2021/12/18 13:23:40;;;;;;;2.60;1.40;;;9.20;99.90;;;;;;5042857;28;20322;-75
2021/12/18 13:26:11;;;;;;;4.20;1.10;;;9.20;99.90;;;;;;5045062;28;20114;-75
2021/12/18 13:28:56;;;;;;;1.77;1.67;;;9.20;99.90;;;;;;5032681;28;20121;-75
2021/12/18 13:31:26;;;;;;;0.43;0.43;;;9.10;99.90;;;;;;5045655;28;20068;-75
2021/12/18 13:33:59;;;;;;;2.60;0.98;;;9.10;99.90;;;;;;5048967;28;20043;-75
2021/12/18 13:36:54;;;;;;;1.40;1.02;;;9.10;99.90;;;;;;5048031;28;20103;-75
2021/12/18 13:39:26;;;;;;;1.42;0.82;;;9.10;99.90;;;;;;5037513;28;20044;-75
2021/12/18 13:42:03;;;;;;;2.00;0.90;;;9.10;99.90;;;;;;5035666;28;20048;-75
2021/12/18 13:44:48;;;;;;;0.20;0.20;;;9.00;99.90;;;;;;5049774;28;20048;-75
2021/12/18 13:47:20;;;;;;;1.88;1.13;;;9.00;99.90;;;;;;5042871;28;20421;-77
2021/12/18 13:49:47;;;;;;;4.25;2.20;;;9.00;99.90;;;;;;5058862;28;20041;-76
2021/12/18 13:52:28;;;;;;;1.95;1.35;;;9.00;99.90;;;;;;5049904;28;20091;-77
2021/12/18 13:54:54;;;;;;;5.43;1.55;;;9.00;99.90;;;;;;5039229;28;20037;-76